首页
METAR-TAF:

METAR-TAF

机场 :

成都双流国际机场

成都, 中华人民共和国

纬度: 30-40N, 经度: 104-01E, 海拔: 508米

当前天气观测

该预报发布于51分钟前的20:00 UTC
风速2节,风向西转西南
温度 25°C
湿度 94%
气压 1004 hPa
能見度: 8000

METAR: ZUUU 192000Z 24001MPS 8000 NSC 25/24 Q1004 NOSIG

时间: 04:51 (20:51 UTC)

预报

该预报发布于6小时和41分钟前的14:10 UTC
预报有效从19日的 18点(UTC)到 20日的 18点(UTC)
风速6节,风向南转西南
能見度: 5000
少量云层高于3000英尺, 积雨云.
散云层高于4000英尺
轻雾

TAF: ZUUU 191410Z 1918/2018 20003MPS 5000 BR FEW030CB SCT040 TX34/2007Z TN24/1923Z

超过4000个机场的气象观测和天气预报(METAR&TAF报告)。

可查询的气象台以黄色和红色小点在地图上表示。

将鼠标移到小点上方,可查看气象台名称。

然后点击查看天气观测和预报。

如需切换地图:点击带黑十字的绿色按钮放大地图;点击带横线的绿色按钮缩小地图;或者点击绿色箭头查看邻近地区的地图。


METAR-TAF: